sensor_id;sensor_type;location;lat;lon;timestamp;P1;durP1;ratioP1;P2;durP2;ratioP2
19554;SDS011;9924;50.828;6.440;2024-03-08T00:01:30;22.97;;;13.70;;
19554;SDS011;9924;50.828;6.440;2024-03-08T00:03:56;23.10;;;14.30;;
19554;SDS011;9924;50.828;6.440;2024-03-08T00:06:21;25.43;;;14.10;;
19554;SDS011;9924;50.828;6.440;2024-03-08T00:08:48;29.27;;;14.77;;
19554;SDS011;9924;50.828;6.440;2024-03-08T00:11:13;25.93;;;13.93;;
19554;SDS011;9924;50.828;6.440;2024-03-08T00:13:39;27.03;;;14.50;;
19554;SDS011;9924;50.828;6.440;2024-03-08T00:16:05;25.53;;;14.23;;
19554;SDS011;9924;50.828;6.440;2024-03-08T00:18:31;25.70;;;14.80;;
19554;SDS011;9924;50.828;6.440;2024-03-08T00:20:56;24.93;;;14.63;;
19554;SDS011;9924;50.828;6.440;2024-03-08T00:23:22;27.83;;;14.27;;
19554;SDS011;9924;50.828;6.440;2024-03-08T00:25:48;24.83;;;14.03;;
19554;SDS011;9924;50.828;6.440;2024-03-08T00:28:14;28.47;;;14.83;;
19554;SDS011;9924;50.828;6.440;2024-03-08T00:30:42;28.37;;;14.70;;
19554;SDS011;9924;50.828;6.440;2024-03-08T00:33:07;28.33;;;14.43;;
19554;SDS011;9924;50.828;6.440;2024-03-08T00:35:33;28.13;;;14.50;;
19554;SDS011;9924;50.828;6.440;2024-03-08T00:37:59;27.47;;;15.07;;
19554;SDS011;9924;50.828;6.440;2024-03-08T00:40:25;27.13;;;15.07;;
19554;SDS011;9924;50.828;6.440;2024-03-08T00:42:50;23.37;;;14.43;;
19554;SDS011;9924;50.828;6.440;2024-03-08T00:45:18;27.80;;;13.80;;
19554;SDS011;9924;50.828;6.440;2024-03-08T00:47:43;23.00;;;13.47;;
19554;SDS011;9924;50.828;6.440;2024-03-08T00:50:09;26.17;;;14.43;;
19554;SDS011;9924;50.828;6.440;2024-03-08T00:52:36;24.97;;;14.57;;
19554;SDS011;9924;50.828;6.440;2024-03-08T00:55:02;26.40;;;14.23;;
19554;SDS011;9924;50.828;6.440;2024-03-08T00:57:28;27.47;;;13.60;;
19554;SDS011;9924;50.828;6.440;2024-03-08T00:59:53;26.40;;;15.07;;
19554;SDS011;9924;50.828;6.440;2024-03-08T01:02:19;24.50;;;13.93;;
19554;SDS011;9924;50.828;6.440;2024-03-08T01:04:46;30.37;;;15.47;;
19554;SDS011;9924;50.828;6.440;2024-03-08T01:07:12;27.07;;;14.97;;
19554;SDS011;9924;50.828;6.440;2024-03-08T01:09:38;31.40;;;15.30;;
19554;SDS011;9924;50.828;6.440;2024-03-08T01:12:03;24.80;;;14.30;;
19554;SDS011;9924;50.828;6.440;2024-03-08T01:14:32;26.50;;;14.53;;
19554;SDS011;9924;50.828;6.440;2024-03-08T01:16:58;26.87;;;14.63;;
19554;SDS011;9924;50.828;6.440;2024-03-08T01:19:24;26.07;;;14.07;;
19554;SDS011;9924;50.828;6.440;2024-03-08T01:21:49;29.00;;;15.30;;
19554;SDS011;9924;50.828;6.440;2024-03-08T01:24:16;28.00;;;15.23;;
19554;SDS011;9924;50.828;6.440;2024-03-08T01:26:42;27.77;;;14.97;;
19554;SDS011;9924;50.828;6.440;2024-03-08T01:29:07;25.43;;;14.67;;
19554;SDS011;9924;50.828;6.440;2024-03-08T01:31:33;26.13;;;14.27;;
19554;SDS011;9924;50.828;6.440;2024-03-08T01:34:01;28.60;;;15.20;;
19554;SDS011;9924;50.828;6.440;2024-03-08T01:36:27;29.47;;;15.40;;
19554;SDS011;9924;50.828;6.440;2024-03-08T01:38:53;27.80;;;14.93;;
19554;SDS011;9924;50.828;6.440;2024-03-08T01:41:19;27.83;;;14.77;;
19554;SDS011;9924;50.828;6.440;2024-03-08T01:43:45;33.53;;;15.33;;
19554;SDS011;9924;50.828;6.440;2024-03-08T01:46:11;31.40;;;14.03;;
19554;SDS011;9924;50.828;6.440;2024-03-08T01:48:41;32.03;;;15.37;;
19554;SDS011;9924;50.828;6.440;2024-03-08T01:51:07;28.83;;;15.53;;
19554;SDS011;9924;50.828;6.440;2024-03-08T01:53:33;28.80;;;14.07;;
19554;SDS011;9924;50.828;6.440;2024-03-08T01:56:00;29.37;;;14.63;;
19554;SDS011;9924;50.828;6.440;2024-03-08T01:58:27;25.50;;;14.43;;
19554;SDS011;9924;50.828;6.440;2024-03-08T02:00:56;27.23;;;15.10;;
19554;SDS011;9924;50.828;6.440;2024-03-08T02:03:23;28.03;;;15.07;;
19554;SDS011;9924;50.828;6.440;2024-03-08T02:05:49;32.53;;;14.83;;
19554;SDS011;9924;50.828;6.440;2024-03-08T02:08:16;29.77;;;14.57;;
19554;SDS011;9924;50.828;6.440;2024-03-08T02:10:43;27.87;;;14.80;;
19554;SDS011;9924;50.828;6.440;2024-03-08T02:13:10;26.60;;;14.70;;
19554;SDS011;9924;50.828;6.440;2024-03-08T02:15:56;25.37;;;13.97;;
19554;SDS011;9924;50.828;6.440;2024-03-08T02:18:26;24.23;;;14.53;;
19554;SDS011;9924;50.828;6.440;2024-03-08T02:20:57;25.70;;;13.83;;
19554;SDS011;9924;50.828;6.440;2024-03-08T02:23:24;26.53;;;14.50;;
19554;SDS011;9924;50.828;6.440;2024-03-08T02:25:51;26.10;;;13.97;;
19554;SDS011;9924;50.828;6.440;2024-03-08T02:28:17;27.83;;;14.40;;
19554;SDS011;9924;50.828;6.440;2024-03-08T02:30:46;29.30;;;14.83;;
19554;SDS011;9924;50.828;6.440;2024-03-08T02:33:14;28.93;;;14.40;;
19554;SDS011;9924;50.828;6.440;2024-03-08T02:35:43;28.50;;;15.20;;
19554;SDS011;9924;50.828;6.440;2024-03-08T02:38:12;29.93;;;15.83;;
19554;SDS011;9924;50.828;6.440;2024-03-08T02:40:41;28.27;;;14.53;;
19554;SDS011;9924;50.828;6.440;2024-03-08T02:43:11;29.80;;;14.83;;
19554;SDS011;9924;50.828;6.440;2024-03-08T02:45:38;29.80;;;15.70;;
19554;SDS011;9924;50.828;6.440;2024-03-08T02:48:04;29.90;;;14.57;;
19554;SDS011;9924;50.828;6.440;2024-03-08T02:50:31;27.77;;;14.63;;
19554;SDS011;9924;50.828;6.440;2024-03-08T02:52:58;28.93;;;15.03;;
19554;SDS011;9924;50.828;6.440;2024-03-08T02:55:24;29.53;;;15.50;;
19554;SDS011;9924;50.828;6.440;2024-03-08T02:57:51;27.83;;;15.00;;
19554;SDS011;9924;50.828;6.440;2024-03-08T03:00:17;26.43;;;14.03;;
19554;SDS011;9924;50.828;6.440;2024-03-08T03:02:44;24.60;;;14.27;;
19554;SDS011;9924;50.828;6.440;2024-03-08T03:05:11;26.83;;;14.47;;
19554;SDS011;9924;50.828;6.440;2024-03-08T03:07:37;27.07;;;14.13;;
19554;SDS011;9924;50.828;6.440;2024-03-08T03:10:03;26.50;;;14.47;;
19554;SDS011;9924;50.828;6.440;2024-03-08T03:12:30;30.10;;;15.47;;
19554;SDS011;9924;50.828;6.440;2024-03-08T03:14:56;27.57;;;14.83;;
19554;SDS011;9924;50.828;6.440;2024-03-08T03:17:25;27.20;;;14.47;;
19554;SDS011;9924;50.828;6.440;2024-03-08T03:19:52;28.40;;;13.93;;
19554;SDS011;9924;50.828;6.440;2024-03-08T03:22:18;31.13;;;14.43;;
19554;SDS011;9924;50.828;6.440;2024-03-08T03:24:45;26.30;;;14.93;;
19554;SDS011;9924;50.828;6.440;2024-03-08T03:27:14;30.03;;;15.27;;
19554;SDS011;9924;50.828;6.440;2024-03-08T03:29:40;28.63;;;15.47;;
19554;SDS011;9924;50.828;6.440;2024-03-08T03:32:10;30.37;;;15.60;;
19554;SDS011;9924;50.828;6.440;2024-03-08T03:34:37;33.17;;;15.27;;
19554;SDS011;9924;50.828;6.440;2024-03-08T03:37:03;25.60;;;14.17;;
19554;SDS011;9924;50.828;6.440;2024-03-08T03:39:29;25.93;;;14.77;;
19554;SDS011;9924;50.828;6.440;2024-03-08T03:42:13;29.33;;;14.83;;
19554;SDS011;9924;50.828;6.440;2024-03-08T03:44:44;29.20;;;15.83;;
19554;SDS011;9924;50.828;6.440;2024-03-08T03:47:13;30.73;;;14.73;;
19554;SDS011;9924;50.828;6.440;2024-03-08T03:49:43;26.73;;;13.83;;
19554;SDS011;9924;50.828;6.440;2024-03-08T03:52:08;28.77;;;14.23;;
19554;SDS011;9924;50.828;6.440;2024-03-08T03:54:35;28.13;;;14.47;;
19554;SDS011;9924;50.828;6.440;2024-03-08T03:57:01;31.10;;;15.20;;
19554;SDS011;9924;50.828;6.440;2024-03-08T03:59:28;29.90;;;15.43;;
19554;SDS011;9924;50.828;6.440;2024-03-08T04:01:54;30.67;;;15.77;;
19554;SDS011;9924;50.828;6.440;2024-03-08T04:04:20;32.70;;;15.13;;
19554;SDS011;9924;50.828;6.440;2024-03-08T04:06:46;31.30;;;14.90;;
19554;SDS011;9924;50.828;6.440;2024-03-08T04:09:12;28.87;;;15.10;;
19554;SDS011;9924;50.828;6.440;2024-03-08T04:11:39;28.77;;;15.07;;
19554;SDS011;9924;50.828;6.440;2024-03-08T04:14:05;33.47;;;14.80;;
19554;SDS011;9924;50.828;6.440;2024-03-08T04:16:31;30.43;;;15.60;;
19554;SDS011;9924;50.828;6.440;2024-03-08T04:18:57;33.23;;;15.40;;
19554;SDS011;9924;50.828;6.440;2024-03-08T04:21:23;31.73;;;16.00;;
19554;SDS011;9924;50.828;6.440;2024-03-08T04:23:49;33.17;;;16.30;;
19554;SDS011;9924;50.828;6.440;2024-03-08T04:26:15;30.80;;;14.63;;
19554;SDS011;9924;50.828;6.440;2024-03-08T04:28:40;28.70;;;14.33;;
19554;SDS011;9924;50.828;6.440;2024-03-08T04:31:06;28.00;;;14.80;;
19554;SDS011;9924;50.828;6.440;2024-03-08T04:33:32;31.00;;;15.70;;
19554;SDS011;9924;50.828;6.440;2024-03-08T04:36:00;30.03;;;14.80;;
19554;SDS011;9924;50.828;6.440;2024-03-08T04:38:29;34.10;;;15.63;;
19554;SDS011;9924;50.828;6.440;2024-03-08T04:40:55;29.20;;;15.47;;
19554;SDS011;9924;50.828;6.440;2024-03-08T04:43:22;30.97;;;16.20;;
19554;SDS011;9924;50.828;6.440;2024-03-08T04:45:50;32.57;;;15.07;;
19554;SDS011;9924;50.828;6.440;2024-03-08T04:48:16;28.17;;;14.33;;
19554;SDS011;9924;50.828;6.440;2024-03-08T04:50:42;30.70;;;14.67;;
19554;SDS011;9924;50.828;6.440;2024-03-08T04:53:07;29.87;;;15.37;;
19554;SDS011;9924;50.828;6.440;2024-03-08T04:55:34;34.73;;;15.40;;
19554;SDS011;9924;50.828;6.440;2024-03-08T04:58:00;31.27;;;15.00;;
19554;SDS011;9924;50.828;6.440;2024-03-08T05:00:26;29.60;;;14.33;;
19554;SDS011;9924;50.828;6.440;2024-03-08T05:02:51;32.27;;;15.03;;
19554;SDS011;9924;50.828;6.440;2024-03-08T05:05:18;31.93;;;15.47;;
19554;SDS011;9924;50.828;6.440;2024-03-08T05:07:44;34.57;;;15.63;;
19554;SDS011;9924;50.828;6.440;2024-03-08T05:10:10;31.57;;;15.03;;
19554;SDS011;9924;50.828;6.440;2024-03-08T05:12:36;33.20;;;15.10;;
19554;SDS011;9924;50.828;6.440;2024-03-08T05:15:05;32.37;;;14.80;;
19554;SDS011;9924;50.828;6.440;2024-03-08T05:17:32;29.73;;;14.43;;
19554;SDS011;9924;50.828;6.440;2024-03-08T05:19:57;28.63;;;14.80;;
19554;SDS011;9924;50.828;6.440;2024-03-08T05:22:23;30.00;;;14.13;;
19554;SDS011;9924;50.828;6.440;2024-03-08T05:24:49;31.87;;;15.67;;
19554;SDS011;9924;50.828;6.440;2024-03-08T05:27:15;28.73;;;15.27;;
19554;SDS011;9924;50.828;6.440;2024-03-08T05:29:41;29.93;;;15.13;;
19554;SDS011;9924;50.828;6.440;2024-03-08T05:32:07;32.23;;;15.70;;
19554;SDS011;9924;50.828;6.440;2024-03-08T05:34:32;35.10;;;16.13;;
19554;SDS011;9924;50.828;6.440;2024-03-08T05:36:58;31.53;;;15.60;;
19554;SDS011;9924;50.828;6.440;2024-03-08T05:39:26;31.53;;;15.43;;
19554;SDS011;9924;50.828;6.440;2024-03-08T05:41:52;32.57;;;16.80;;
19554;SDS011;9924;50.828;6.440;2024-03-08T05:44:20;31.70;;;14.80;;
19554;SDS011;9924;50.828;6.440;2024-03-08T05:46:45;32.43;;;15.80;;
19554;SDS011;9924;50.828;6.440;2024-03-08T05:49:11;33.60;;;16.17;;
19554;SDS011;9924;50.828;6.440;2024-03-08T05:51:38;34.77;;;15.57;;
19554;SDS011;9924;50.828;6.440;2024-03-08T05:54:05;29.33;;;15.20;;
19554;SDS011;9924;50.828;6.440;2024-03-08T05:56:34;33.63;;;15.63;;
19554;SDS011;9924;50.828;6.440;2024-03-08T05:59:00;30.50;;;14.83;;
19554;SDS011;9924;50.828;6.440;2024-03-08T06:01:27;37.60;;;15.23;;
19554;SDS011;9924;50.828;6.440;2024-03-08T06:03:53;32.23;;;14.70;;
19554;SDS011;9924;50.828;6.440;2024-03-08T06:06:25;31.97;;;15.33;;
19554;SDS011;9924;50.828;6.440;2024-03-08T06:08:51;30.50;;;15.17;;
19554;SDS011;9924;50.828;6.440;2024-03-08T06:11:18;32.57;;;14.87;;
19554;SDS011;9924;50.828;6.440;2024-03-08T06:13:45;33.03;;;15.47;;
19554;SDS011;9924;50.828;6.440;2024-03-08T06:16:11;32.57;;;15.60;;
19554;SDS011;9924;50.828;6.440;2024-03-08T06:18:37;29.90;;;14.77;;
19554;SDS011;9924;50.828;6.440;2024-03-08T06:21:04;31.07;;;15.97;;
19554;SDS011;9924;50.828;6.440;2024-03-08T06:23:33;34.80;;;15.97;;
19554;SDS011;9924;50.828;6.440;2024-03-08T06:26:03;31.30;;;15.83;;
19554;SDS011;9924;50.828;6.440;2024-03-08T06:28:29;30.47;;;14.87;;
19554;SDS011;9924;50.828;6.440;2024-03-08T06:30:57;34.00;;;15.50;;
19554;SDS011;9924;50.828;6.440;2024-03-08T06:33:27;32.87;;;15.57;;
19554;SDS011;9924;50.828;6.440;2024-03-08T06:35:54;31.60;;;15.43;;
19554;SDS011;9924;50.828;6.440;2024-03-08T06:38:26;28.30;;;14.40;;
19554;SDS011;9924;50.828;6.440;2024-03-08T06:40:52;34.80;;;15.67;;
19554;SDS011;9924;50.828;6.440;2024-03-08T06:43:19;34.00;;;16.00;;
19554;SDS011;9924;50.828;6.440;2024-03-08T06:45:45;33.30;;;16.70;;
19554;SDS011;9924;50.828;6.440;2024-03-08T06:48:16;33.43;;;15.23;;
19554;SDS011;9924;50.828;6.440;2024-03-08T06:50:46;30.03;;;15.70;;
19554;SDS011;9924;50.828;6.440;2024-03-08T06:53:12;30.50;;;15.87;;
19554;SDS011;9924;50.828;6.440;2024-03-08T06:55:39;30.17;;;15.43;;
19554;SDS011;9924;50.828;6.440;2024-03-08T06:58:05;34.27;;;16.33;;
19554;SDS011;9924;50.828;6.440;2024-03-08T07:00:35;30.73;;;14.80;;
19554;SDS011;9924;50.828;6.440;2024-03-08T07:03:01;32.73;;;15.80;;
19554;SDS011;9924;50.828;6.440;2024-03-08T07:05:28;29.87;;;14.93;;
19554;SDS011;9924;50.828;6.440;2024-03-08T07:07:54;30.50;;;15.23;;
19554;SDS011;9924;50.828;6.440;2024-03-08T07:10:21;29.97;;;15.37;;
19554;SDS011;9924;50.828;6.440;2024-03-08T07:12:58;31.40;;;15.20;;
19554;SDS011;9924;50.828;6.440;2024-03-08T07:15:27;30.53;;;14.67;;
19554;SDS011;9924;50.828;6.440;2024-03-08T07:17:54;29.50;;;14.90;;
19554;SDS011;9924;50.828;6.440;2024-03-08T07:20:23;29.43;;;14.90;;
19554;SDS011;9924;50.828;6.440;2024-03-08T07:22:49;28.33;;;15.07;;
19554;SDS011;9924;50.828;6.440;2024-03-08T07:25:19;31.27;;;15.67;;
19554;SDS011;9924;50.828;6.440;2024-03-08T07:27:52;26.40;;;13.63;;
19554;SDS011;9924;50.828;6.440;2024-03-08T07:30:21;26.00;;;14.13;;
19554;SDS011;9924;50.828;6.440;2024-03-08T07:33:07;25.27;;;13.40;;
19554;SDS011;9924;50.828;6.440;2024-03-08T07:35:33;30.17;;;14.57;;
19554;SDS011;9924;50.828;6.440;2024-03-08T07:38:03;26.73;;;13.93;;
19554;SDS011;9924;50.828;6.440;2024-03-08T07:40:36;29.90;;;15.03;;
19554;SDS011;9924;50.828;6.440;2024-03-08T07:43:59;30.37;;;14.10;;
19554;SDS011;9924;50.828;6.440;2024-03-08T07:46:29;26.37;;;14.07;;
19554;SDS011;9924;50.828;6.440;2024-03-08T07:48:54;31.27;;;15.40;;
19554;SDS011;9924;50.828;6.440;2024-03-08T07:51:20;27.23;;;14.43;;
19554;SDS011;9924;50.828;6.440;2024-03-08T07:53:45;29.70;;;15.00;;
19554;SDS011;9924;50.828;6.440;2024-03-08T07:56:11;28.27;;;13.45;;
19554;SDS011;9924;50.828;6.440;2024-03-08T07:58:39;24.95;;;12.77;;
19554;SDS011;9924;50.828;6.440;2024-03-08T08:01:08;28.17;;;14.63;;
19554;SDS011;9924;50.828;6.440;2024-03-08T08:03:40;26.10;;;15.13;;
19554;SDS011;9924;50.828;6.440;2024-03-08T08:06:07;27.23;;;14.10;;
19554;SDS011;9924;50.828;6.440;2024-03-08T08:08:33;25.05;;;13.75;;
19554;SDS011;9924;50.828;6.440;2024-03-08T08:10:59;26.45;;;14.38;;
19554;SDS011;9924;50.828;6.440;2024-03-08T08:13:26;27.83;;;14.15;;
19554;SDS011;9924;50.828;6.440;2024-03-08T08:15:57;26.35;;;13.85;;
19554;SDS011;9924;50.828;6.440;2024-03-08T08:18:24;27.33;;;14.02;;
19554;SDS011;9924;50.828;6.440;2024-03-08T08:20:50;29.70;;;13.90;;
19554;SDS011;9924;50.828;6.440;2024-03-08T08:23:17;26.25;;;13.32;;
19554;SDS011;9924;50.828;6.440;2024-03-08T08:25:45;24.63;;;13.18;;
19554;SDS011;9924;50.828;6.440;2024-03-08T08:28:11;32.38;;;14.13;;
19554;SDS011;9924;50.828;6.440;2024-03-08T08:30:37;26.85;;;14.32;;
19554;SDS011;9924;50.828;6.440;2024-03-08T08:33:03;27.50;;;13.82;;
19554;SDS011;9924;50.828;6.440;2024-03-08T08:35:30;25.10;;;12.70;;
19554;SDS011;9924;50.828;6.440;2024-03-08T08:37:57;23.77;;;13.48;;
19554;SDS011;9924;50.828;6.440;2024-03-08T08:40:24;27.85;;;13.95;;
19554;SDS011;9924;50.828;6.440;2024-03-08T08:42:50;25.30;;;13.80;;
19554;SDS011;9924;50.828;6.440;2024-03-08T08:45:18;28.70;;;13.52;;
19554;SDS011;9924;50.828;6.440;2024-03-08T08:47:44;29.25;;;14.18;;
19554;SDS011;9924;50.828;6.440;2024-03-08T08:50:10;25.73;;;13.52;;
19554;SDS011;9924;50.828;6.440;2024-03-08T08:52:39;27.80;;;14.07;;
19554;SDS011;9924;50.828;6.440;2024-03-08T08:55:05;26.75;;;14.55;;
19554;SDS011;9924;50.828;6.440;2024-03-08T08:57:31;28.23;;;14.07;;
19554;SDS011;9924;50.828;6.440;2024-03-08T08:59:58;29.25;;;14.55;;
19554;SDS011;9924;50.828;6.440;2024-03-08T09:02:26;26.63;;;14.50;;
19554;SDS011;9924;50.828;6.440;2024-03-08T09:04:51;33.67;;;14.05;;
19554;SDS011;9924;50.828;6.440;2024-03-08T09:07:18;28.10;;;13.82;;
19554;SDS011;9924;50.828;6.440;2024-03-08T09:09:44;26.40;;;13.18;;
19554;SDS011;9924;50.828;6.440;2024-03-08T09:12:10;24.05;;;13.35;;
19554;SDS011;9924;50.828;6.440;2024-03-08T09:14:39;26.63;;;13.40;;
19554;SDS011;9924;50.828;6.440;2024-03-08T09:17:05;24.25;;;12.15;;
19554;SDS011;9924;50.828;6.440;2024-03-08T09:19:34;26.55;;;13.23;;
19554;SDS011;9924;50.828;6.440;2024-03-08T09:22:01;26.77;;;13.43;;
19554;SDS011;9924;50.828;6.440;2024-03-08T09:24:29;27.88;;;12.50;;
19554;SDS011;9924;50.828;6.440;2024-03-08T09:26:56;24.55;;;12.48;;
19554;SDS011;9924;50.828;6.440;2024-03-08T09:29:24;23.80;;;12.80;;
19554;SDS011;9924;50.828;6.440;2024-03-08T09:31:49;23.75;;;12.57;;
19554;SDS011;9924;50.828;6.440;2024-03-08T09:34:16;25.33;;;13.40;;
19554;SDS011;9924;50.828;6.440;2024-03-08T09:36:44;26.08;;;13.18;;
19554;SDS011;9924;50.828;6.440;2024-03-08T09:39:09;22.58;;;11.20;;
19554;SDS011;9924;50.828;6.440;2024-03-08T09:41:41;26.42;;;12.40;;
19554;SDS011;9924;50.828;6.440;2024-03-08T09:44:08;22.33;;;12.07;;
19554;SDS011;9924;50.828;6.440;2024-03-08T09:46:34;23.73;;;12.80;;
19554;SDS011;9924;50.828;6.440;2024-03-08T09:49:01;23.92;;;12.77;;
19554;SDS011;9924;50.828;6.440;2024-03-08T09:51:30;25.08;;;13.00;;
19554;SDS011;9924;50.828;6.440;2024-03-08T09:53:59;24.02;;;12.27;;
19554;SDS011;9924;50.828;6.440;2024-03-08T09:56:26;20.65;;;12.23;;
19554;SDS011;9924;50.828;6.440;2024-03-08T09:58:53;24.67;;;11.90;;
19554;SDS011;9924;50.828;6.440;2024-03-08T10:01:30;20.30;;;11.35;;
19554;SDS011;9924;50.828;6.440;2024-03-08T10:03:59;21.05;;;11.27;;
19554;SDS011;9924;50.828;6.440;2024-03-08T10:06:27;21.75;;;11.55;;
19554;SDS011;9924;50.828;6.440;2024-03-08T10:08:52;23.55;;;11.77;;
19554;SDS011;9924;50.828;6.440;2024-03-08T10:11:18;21.38;;;10.93;;
19554;SDS011;9924;50.828;6.440;2024-03-08T10:13:44;22.48;;;11.88;;
19554;SDS011;9924;50.828;6.440;2024-03-08T10:16:12;20.83;;;11.80;;
19554;SDS011;9924;50.828;6.440;2024-03-08T10:18:38;23.63;;;12.30;;
19554;SDS011;9924;50.828;6.440;2024-03-08T10:21:04;21.38;;;11.63;;
19554;SDS011;9924;50.828;6.440;2024-03-08T10:23:32;19.10;;;11.43;;
19554;SDS011;9924;50.828;6.440;2024-03-08T10:26:09;22.63;;;11.52;;
19554;SDS011;9924;50.828;6.440;2024-03-08T10:28:46;25.33;;;11.10;;
19554;SDS011;9924;50.828;6.440;2024-03-08T10:31:16;23.92;;;11.10;;
19554;SDS011;9924;50.828;6.440;2024-03-08T10:33:42;19.33;;;12.10;;
19554;SDS011;9924;50.828;6.440;2024-03-08T10:36:09;19.95;;;10.82;;
19554;SDS011;9924;50.828;6.440;2024-03-08T10:38:36;22.75;;;11.27;;
19554;SDS011;9924;50.828;6.440;2024-03-08T10:41:05;19.80;;;11.38;;
19554;SDS011;9924;50.828;6.440;2024-03-08T10:49:31;18.58;;;11.05;;
19554;SDS011;9924;50.828;6.440;2024-03-08T10:52:02;19.30;;;10.38;;
19554;SDS011;9924;50.828;6.440;2024-03-08T10:54:30;22.42;;;10.70;;
19554;SDS011;9924;50.828;6.440;2024-03-08T10:56:59;16.52;;;9.95;;
19554;SDS011;9924;50.828;6.440;2024-03-08T10:59:27;18.63;;;9.32;;
19554;SDS011;9924;50.828;6.440;2024-03-08T11:01:54;19.92;;;10.48;;
19554;SDS011;9924;50.828;6.440;2024-03-08T11:04:20;18.30;;;10.45;;
19554;SDS011;9924;50.828;6.440;2024-03-08T11:06:49;16.40;;;9.35;;
19554;SDS011;9924;50.828;6.440;2024-03-08T11:09:28;17.38;;;9.93;;
19554;SDS011;9924;50.828;6.440;2024-03-08T11:15:00;17.95;;;9.50;;
19554;SDS011;9924;50.828;6.440;2024-03-08T11:20:12;20.25;;;11.35;;
19554;SDS011;9924;50.828;6.440;2024-03-08T11:22:48;16.92;;;9.73;;
19554;SDS011;9924;50.828;6.440;2024-03-08T11:25:33;19.58;;;10.38;;
19554;SDS011;9924;50.828;6.440;2024-03-08T11:28:19;21.05;;;10.55;;
19554;SDS011;9924;50.828;6.440;2024-03-08T11:33:25;17.63;;;10.05;;
19554;SDS011;9924;50.828;6.440;2024-03-08T11:36:29;17.83;;;9.98;;
19554;SDS011;9924;50.828;6.440;2024-03-08T11:38:49;16.33;;;9.80;;
19554;SDS011;9924;50.828;6.440;2024-03-08T11:41:18;19.80;;;9.88;;
19554;SDS011;9924;50.828;6.440;2024-03-08T11:43:48;16.27;;;9.65;;
19554;SDS011;9924;50.828;6.440;2024-03-08T11:46:15;20.98;;;10.43;;
19554;SDS011;9924;50.828;6.440;2024-03-08T11:48:42;18.20;;;10.07;;
19554;SDS011;9924;50.828;6.440;2024-03-08T11:51:12;17.52;;;9.48;;
19554;SDS011;9924;50.828;6.440;2024-03-08T11:53:40;16.40;;;9.82;;
19554;SDS011;9924;50.828;6.440;2024-03-08T11:56:07;14.70;;;9.07;;
19554;SDS011;9924;50.828;6.440;2024-03-08T11:58:34;16.88;;;10.13;;
19554;SDS011;9924;50.828;6.440;2024-03-08T12:01:02;16.75;;;10.23;;
19554;SDS011;9924;50.828;6.440;2024-03-08T12:03:32;19.83;;;9.73;;
19554;SDS011;9924;50.828;6.440;2024-03-08T12:06:03;16.58;;;9.32;;
19554;SDS011;9924;50.828;6.440;2024-03-08T12:08:32;20.63;;;10.48;;
19554;SDS011;9924;50.828;6.440;2024-03-08T12:10:58;16.92;;;9.75;;
19554;SDS011;9924;50.828;6.440;2024-03-08T12:15:57;17.92;;;10.90;;
19554;SDS011;9924;50.828;6.440;2024-03-08T12:18:25;16.13;;;9.32;;
19554;SDS011;9924;50.828;6.440;2024-03-08T12:21:06;17.98;;;10.27;;
19554;SDS011;9924;50.828;6.440;2024-03-08T12:23:36;18.88;;;9.30;;
19554;SDS011;9924;50.828;6.440;2024-03-08T12:26:15;13.55;;;8.65;;
19554;SDS011;9924;50.828;6.440;2024-03-08T12:28:42;16.10;;;9.70;;
19554;SDS011;9924;50.828;6.440;2024-03-08T12:31:11;17.13;;;9.18;;
19554;SDS011;9924;50.828;6.440;2024-03-08T12:33:48;19.95;;;9.15;;
19554;SDS011;9924;50.828;6.440;2024-03-08T12:36:17;18.45;;;9.63;;
19554;SDS011;9924;50.828;6.440;2024-03-08T12:38:48;14.57;;;8.60;;
19554;SDS011;9924;50.828;6.440;2024-03-08T12:41:14;14.40;;;9.07;;
19554;SDS011;9924;50.828;6.440;2024-03-08T12:43:42;14.63;;;8.65;;
19554;SDS011;9924;50.828;6.440;2024-03-08T12:46:20;19.15;;;9.68;;
19554;SDS011;9924;50.828;6.440;2024-03-08T12:48:47;19.90;;;9.05;;
19554;SDS011;9924;50.828;6.440;2024-03-08T12:51:16;15.20;;;8.55;;
19554;SDS011;9924;50.828;6.440;2024-03-08T12:53:43;17.42;;;9.02;;
19554;SDS011;9924;50.828;6.440;2024-03-08T12:56:11;15.57;;;9.18;;
19554;SDS011;9924;50.828;6.440;2024-03-08T12:58:37;16.65;;;9.05;;
19554;SDS011;9924;50.828;6.440;2024-03-08T13:01:04;14.95;;;8.68;;
19554;SDS011;9924;50.828;6.440;2024-03-08T13:03:32;16.10;;;8.73;;
19554;SDS011;9924;50.828;6.440;2024-03-08T13:05:59;14.80;;;8.55;;
19554;SDS011;9924;50.828;6.440;2024-03-08T13:08:26;14.98;;;9.10;;
19554;SDS011;9924;50.828;6.440;2024-03-08T13:10:54;14.73;;;7.82;;
19554;SDS011;9924;50.828;6.440;2024-03-08T13:13:20;14.98;;;8.00;;
19554;SDS011;9924;50.828;6.440;2024-03-08T13:15:46;13.75;;;8.38;;
19554;SDS011;9924;50.828;6.440;2024-03-08T13:18:12;15.93;;;8.57;;
19554;SDS011;9924;50.828;6.440;2024-03-08T13:20:38;15.18;;;8.02;;
19554;SDS011;9924;50.828;6.440;2024-03-08T13:23:04;14.02;;;7.50;;
19554;SDS011;9924;50.828;6.440;2024-03-08T13:25:30;12.93;;;7.50;;
19554;SDS011;9924;50.828;6.440;2024-03-08T13:27:57;12.85;;;7.60;;
19554;SDS011;9924;50.828;6.440;2024-03-08T13:30:24;13.05;;;7.57;;
19554;SDS011;9924;50.828;6.440;2024-03-08T13:32:54;14.77;;;8.23;;
19554;SDS011;9924;50.828;6.440;2024-03-08T13:35:20;15.13;;;8.07;;
19554;SDS011;9924;50.828;6.440;2024-03-08T13:37:50;14.85;;;8.32;;
19554;SDS011;9924;50.828;6.440;2024-03-08T13:40:16;16.48;;;7.80;;
19554;SDS011;9924;50.828;6.440;2024-03-08T13:42:48;13.20;;;7.28;;
19554;SDS011;9924;50.828;6.440;2024-03-08T13:45:14;15.00;;;7.90;;
19554;SDS011;9924;50.828;6.440;2024-03-08T13:47:47;13.85;;;7.65;;
19554;SDS011;9924;50.828;6.440;2024-03-08T13:50:14;13.10;;;7.72;;
19554;SDS011;9924;50.828;6.440;2024-03-08T13:52:46;13.52;;;8.23;;
19554;SDS011;9924;50.828;6.440;2024-03-08T13:55:16;14.02;;;7.65;;
19554;SDS011;9924;50.828;6.440;2024-03-08T13:57:43;13.27;;;7.68;;
19554;SDS011;9924;50.828;6.440;2024-03-08T14:00:10;15.05;;;8.38;;
19554;SDS011;9924;50.828;6.440;2024-03-08T14:02:37;13.93;;;7.43;;
19554;SDS011;9924;50.828;6.440;2024-03-08T14:05:09;16.55;;;7.95;;
19554;SDS011;9924;50.828;6.440;2024-03-08T14:07:37;14.18;;;7.80;;
19554;SDS011;9924;50.828;6.440;2024-03-08T14:10:04;14.15;;;8.00;;
19554;SDS011;9924;50.828;6.440;2024-03-08T14:12:32;12.20;;;8.40;;
19554;SDS011;9924;50.828;6.440;2024-03-08T14:14:58;12.30;;;8.43;;
19554;SDS011;9924;50.828;6.440;2024-03-08T14:17:25;13.40;;;8.40;;
19554;SDS011;9924;50.828;6.440;2024-03-08T14:19:52;12.25;;;8.00;;
19554;SDS011;9924;50.828;6.440;2024-03-08T14:22:19;16.00;;;8.18;;
19554;SDS011;9924;50.828;6.440;2024-03-08T14:24:45;13.27;;;6.63;;
19554;SDS011;9924;50.828;6.440;2024-03-08T14:27:11;15.05;;;8.35;;
19554;SDS011;9924;50.828;6.440;2024-03-08T14:29:37;13.32;;;8.27;;
19554;SDS011;9924;50.828;6.440;2024-03-08T14:32:06;13.80;;;7.82;;
19554;SDS011;9924;50.828;6.440;2024-03-08T14:34:33;11.55;;;6.95;;
19554;SDS011;9924;50.828;6.440;2024-03-08T14:36:59;13.25;;;7.82;;
19554;SDS011;9924;50.828;6.440;2024-03-08T14:39:26;12.15;;;8.05;;
19554;SDS011;9924;50.828;6.440;2024-03-08T14:41:54;14.05;;;7.43;;
19554;SDS011;9924;50.828;6.440;2024-03-08T14:44:23;12.95;;;7.70;;
19554;SDS011;9924;50.828;6.440;2024-03-08T14:46:55;14.65;;;7.70;;
19554;SDS011;9924;50.828;6.440;2024-03-08T14:49:21;11.50;;;7.55;;
19554;SDS011;9924;50.828;6.440;2024-03-08T14:51:47;13.27;;;7.90;;
19554;SDS011;9924;50.828;6.440;2024-03-08T14:54:13;13.13;;;8.00;;
19554;SDS011;9924;50.828;6.440;2024-03-08T14:56:39;15.00;;;8.23;;
19554;SDS011;9924;50.828;6.440;2024-03-08T14:59:08;13.85;;;7.50;;